Knoxville, Alabama
Current Conditions -  °F | °C
As of 9:53 AM on Friday 19 Dec 2014 (Local Time) from KTCL Reporting Station
Clear Clear  
Wind Chill: 43°   Ceiling: Unl
Heat Index: 45°   Visibility: 10mi
Dew Point: 36°   Wind: 5mph
Humidity: 71%   Direction: 60°ENE
Pressure: 30.25"   Gusts: NA
Location:  32.99°N, 87.79°W
Report Text: KTCL 191553Z 06004KT 10SM CLR 07/02 A3025 RMK AO2 SLP243 T00720022
Loading
Personal Weather Stations






























Interactive Weather Map New forecast layout! Learn more

10-Day Weather Forecast

Advertisements
Track Severe Weather on mobile